Time;durP1;ratioP1;P1;durP2;ratioP2;P2;SDS_P1;SDS_P2;PMS_P1;PMS_P2;Temp;Humidity;BMP_temperature;BMP_pressure;BME280_temperature;BME280_humidity;BME280_pressure;Samples;Min_cycle;Max_cycle;Signal;HPM_P1;HPM_P2
2021/04/27 00:00:31;;;;;;;2.83;1.40;;;;;;;6.53;38.58;97689.50;4861114;29;20497;-47
2021/04/27 00:02:56;;;;;;;3.55;1.30;;;;;;;6.63;38.48;97698.44;4861659;29;20044;-45
2021/04/27 00:05:22;;;;;;;3.65;1.30;;;;;;;6.55;38.55;97700.69;4861126;29;20081;-46
2021/04/27 00:07:47;;;;;;;3.92;1.60;;;;;;;6.66;38.24;97698.25;4868361;29;20037;-45
2021/04/27 00:10:14;;;;;;;4.05;1.60;;;;;;;6.54;37.83;97688.59;4879474;29;20017;-46
2021/04/27 00:12:39;;;;;;;4.32;1.50;;;;;;;6.44;38.83;97693.53;4879487;29;20044;-49
2021/04/27 00:15:07;;;;;;;4.05;1.50;;;;;;;6.32;39.27;97689.03;4879982;29;20028;-46
2021/04/27 00:17:33;;;;;;;3.33;1.40;;;;;;;6.35;39.58;97694.91;4879347;29;20037;-45
2021/04/27 00:19:58;;;;;;;2.53;1.20;;;;;;;6.30;39.26;97686.53;4879020;29;20040;-44
2021/04/27 00:22:23;;;;;;;2.75;1.30;;;;;;;6.40;38.92;97682.44;4872691;29;20033;-46
2021/04/27 00:24:49;;;;;;;3.92;1.70;;;;;;;6.47;38.72;97676.84;4861109;29;20442;-46
2021/04/27 00:27:14;;;;;;;4.28;1.42;;;;;;;6.27;39.51;97675.47;4860310;29;20112;-44
2021/04/27 00:29:39;;;;;;;4.50;1.42;;;;;;;6.12;39.35;97680.63;4860318;29;20030;-50
2021/04/27 00:32:05;;;;;;;1.95;1.10;;;;;;;6.05;39.63;97675.88;4859987;29;20446;-48
2021/04/27 00:34:30;;;;;;;3.95;1.30;;;;;;;6.14;39.87;97672.72;4860451;29;20034;-45
2021/04/27 00:36:56;;;;;;;2.72;1.30;;;;;;;6.18;39.16;97669.84;4876502;29;20041;-45
2021/04/27 00:39:21;;;;;;;2.60;1.20;;;;;;;6.23;39.14;97659.19;4878899;29;20036;-46
2021/04/27 00:41:47;;;;;;;4.35;1.55;;;;;;;6.20;39.39;97656.75;4878619;29;20029;-49
2021/04/27 00:44:12;;;;;;;3.33;1.60;;;;;;;6.11;39.18;97665.94;4878804;29;20031;-46
2021/04/27 00:46:37;;;;;;;3.67;1.38;;;;;;;6.11;39.73;97657.28;4878914;29;20465;-44
2021/04/27 00:49:03;;;;;;;3.83;1.48;;;;;;;5.98;39.50;97653.72;4880924;29;20080;-49
2021/04/27 00:51:28;;;;;;;2.65;1.05;;;;;;;6.04;39.31;97658.59;4867165;29;20037;-48
2021/04/27 00:53:54;;;;;;;3.83;1.50;;;;;;;5.94;39.58;97647.88;4863671;29;20478;-50
2021/04/27 00:56:21;;;;;;;2.67;1.33;;;;;;;6.03;39.61;97651.72;4863745;29;20037;-46
2021/04/27 00:58:47;;;;;;;4.18;1.15;;;;;;;5.88;40.10;97648.19;4861649;29;20401;-48
2021/04/27 01:01:12;;;;;;;2.40;1.00;;;;;;;5.77;40.06;97659.22;4863471;29;20030;-46
2021/04/27 01:03:39;;;;;;;2.60;1.20;;;;;;;5.91;39.72;97648.84;4864335;29;20541;-49
2021/04/27 01:06:04;;;;;;;3.42;1.23;;;;;;;5.91;39.62;97651.44;4863635;29;20026;-46
2021/04/27 01:08:48;;;;;;;3.20;1.20;;;;;;;5.94;39.46;97643.50;4863152;29;20082;-47
2021/04/27 01:11:26;;;;;;;2.92;1.13;;;;;;;5.87;39.52;97641.31;4863651;29;20029;-48
2021/04/27 01:13:54;;;;;;;2.50;1.27;;;;;;;5.83;39.71;97639.81;4863396;29;20036;-45
2021/04/27 01:16:19;;;;;;;4.40;1.27;;;;;;;5.70;39.86;97634.50;4863477;29;20037;-45
2021/04/27 01:18:48;;;;;;;3.13;1.42;;;;;;;5.75;40.04;97629.88;4855537;29;20040;-45
2021/04/27 01:21:14;;;;;;;4.57;1.30;;;;;;;5.59;40.78;97626.47;4849883;29;20041;-48
2021/04/27 01:23:58;;;;;;;3.03;1.40;;;;;;;5.48;39.98;97608.88;4865376;29;20156;-51
2021/04/27 01:26:33;;;;;;;3.22;1.30;;;;;;;5.71;40.06;97618.81;4868988;29;20036;-49
2021/04/27 01:28:59;;;;;;;3.30;1.23;;;;;;;5.68;39.73;97605.13;4863367;29;20029;-45
2021/04/27 01:31:25;;;;;;;3.15;1.40;;;;;;;5.81;39.53;97615.66;4850721;29;20438;-46
2021/04/27 01:33:50;;;;;;;3.10;1.08;;;;;;;5.80;39.58;97622.63;4849792;29;20081;-45
2021/04/27 01:36:15;;;;;;;4.47;1.30;;;;;;;5.62;39.54;97600.28;4881469;29;20036;-49
2021/04/27 01:38:42;;;;;;;4.15;1.20;;;;;;;5.85;39.68;97618.00;4864817;29;20035;-50
2021/04/27 01:41:07;;;;;;;3.03;1.23;;;;;;;5.86;39.34;97606.66;4881126;29;20078;-48
2021/04/27 01:43:32;;;;;;;4.03;1.63;;;;;;;5.96;38.56;97606.97;4849527;29;20033;-48
2021/04/27 01:46:01;;;;;;;3.63;1.30;;;;;;;5.77;39.18;97604.56;4861475;29;20034;-48
2021/04/27 01:48:26;;;;;;;2.92;1.10;;;;;;;5.60;39.68;97607.31;4846336;29;20025;-47
2021/04/27 01:50:53;;;;;;;3.45;1.40;;;;;;;5.68;39.11;97605.97;4861025;29;20021;-46
2021/04/27 01:53:18;;;;;;;2.63;1.20;;;;;;;5.76;38.60;97602.91;4861586;29;20097;-47
2021/04/27 01:55:44;;;;;;;3.10;1.33;;;;;;;5.66;39.19;97600.00;4846396;29;20033;-46
2021/04/27 01:58:09;;;;;;;2.90;1.30;;;;;;;5.76;39.11;97602.06;4862473;29;20040;-48
2021/04/27 02:00:35;;;;;;;3.50;1.20;;;;;;;5.67;38.95;97593.88;4874627;29;20029;-47
2021/04/27 02:03:00;;;;;;;2.80;1.20;;;;;;;5.71;38.78;97604.94;4881129;29;20031;-46
2021/04/27 02:05:26;;;;;;;3.65;1.33;;;;;;;5.59;39.26;97596.09;4881527;29;20533;-50
2021/04/27 02:07:51;;;;;;;4.25;1.40;;;;;;;5.57;39.50;97599.69;4881002;29;20035;-49
2021/04/27 02:10:17;;;;;;;5.25;1.38;;;;;;;5.50;39.62;97587.97;4880685;29;20052;-46
2021/04/27 02:12:51;;;;;;;3.15;1.30;;;;;;;5.51;39.49;97597.47;4864308;29;20028;-47
2021/04/27 02:15:17;;;;;;;3.30;1.20;;;;;;;5.57;38.68;97597.09;4851276;29;20502;-46
2021/04/27 02:17:47;;;;;;;3.85;1.35;;;;;;;5.63;39.48;97597.56;4862278;29;20116;-48
2021/04/27 02:20:13;;;;;;;2.92;1.23;;;;;;;5.61;39.02;97593.38;4829966;29;20033;-47
2021/04/27 02:22:38;;;;;;;2.33;1.20;;;;;;;5.50;39.39;97585.38;4860907;29;20026;-49
2021/04/27 02:25:04;;;;;;;5.07;1.50;;;;;;;5.52;39.30;97593.94;4877879;29;20393;-49
2021/04/27 02:27:35;;;;;;;4.10;1.48;;;;;;;5.42;39.73;97598.81;4875147;29;20367;-46
2021/04/27 02:30:06;;;;;;;3.17;1.03;;;;;;;5.51;38.74;97593.09;4846005;29;20026;-49
2021/04/27 02:32:31;;;;;;;3.25;1.42;;;;;;;5.39;39.45;97596.41;4845298;29;20541;-46
2021/04/27 02:34:57;;;;;;;2.38;1.15;;;;;;;5.36;39.47;97594.81;4845213;29;20037;-46
2021/04/27 02:37:22;;;;;;;3.25;1.33;;;;;;;5.35;39.75;97600.94;4861909;29;20025;-47
2021/04/27 02:39:48;;;;;;;3.67;1.40;;;;;;;5.15;40.26;97596.03;4861419;29;20041;-48
2021/04/27 02:42:13;;;;;;;3.72;1.40;;;;;;;5.16;40.35;97598.56;4866310;29;20025;-49
2021/04/27 02:44:39;;;;;;;3.67;1.40;;;;;;;5.14;39.83;97589.16;4880242;29;20495;-48
2021/04/27 02:47:04;;;;;;;3.22;1.20;;;;;;;5.13;40.04;97592.69;4879992;29;20025;-45
2021/04/27 02:49:30;;;;;;;3.25;1.40;;;;;;;5.04;40.39;97588.00;4863749;29;20620;-51
2021/04/27 02:51:55;;;;;;;5.00;1.67;;;;;;;5.05;40.02;97590.50;4878457;29;20028;-48
2021/04/27 02:54:20;;;;;;;3.10;1.40;;;;;;;5.14;40.00;97583.97;4879650;29;20029;-51
2021/04/27 02:56:46;;;;;;;3.47;1.48;;;;;;;5.21;39.56;97585.28;4864769;29;20037;-48
2021/04/27 02:59:12;;;;;;;3.13;1.23;;;;;;;5.03;40.14;97581.97;4860972;29;20033;-50
2021/04/27 03:01:37;;;;;;;3.63;1.65;;;;;;;4.96;40.47;97576.28;4860623;29;20147;-52
2021/04/27 03:04:06;;;;;;;2.95;1.15;;;;;;;4.99;40.85;97572.69;4860931;29;20281;-47
2021/04/27 03:06:32;;;;;;;3.03;1.20;;;;;;;4.95;40.34;97574.56;4860848;29;20029;-49
2021/04/27 03:08:58;;;;;;;4.95;1.45;;;;;;;4.78;41.28;97574.69;4860629;29;20073;-49
2021/04/27 03:11:23;;;;;;;3.88;1.30;;;;;;;4.88;41.25;97575.84;4872719;29;20036;-47
2021/04/27 03:13:52;;;;;;;2.97;1.30;;;;;;;4.83;41.21;97569.25;4879023;29;20044;-51
2021/04/27 03:16:18;;;;;;;3.78;1.23;;;;;;;4.83;40.50;97561.44;4879165;29;20028;-52
2021/04/27 03:18:44;;;;;;;3.80;1.40;;;;;;;4.94;40.01;97572.06;4878955;29;20040;-47
2021/04/27 03:21:09;;;;;;;3.25;1.20;;;;;;;4.88;40.27;97572.41;4878874;29;20060;-50
2021/04/27 03:23:35;;;;;;;1.95;1.10;;;;;;;4.71;40.60;97566.41;4873433;29;20048;-49
2021/04/27 03:26:00;;;;;;;4.40;1.58;;;;;;;4.80;40.62;97570.25;4860751;29;20040;-48
2021/04/27 03:28:25;;;;;;;3.65;1.30;;;;;;;4.83;40.79;97570.06;4860777;29;20025;-50
2021/04/27 03:30:51;;;;;;;3.38;1.40;;;;;;;4.76;41.36;97574.78;4860387;29;20116;-46
2021/04/27 03:33:16;;;;;;;5.25;1.50;;;;;;;4.66;41.44;97562.38;4860714;29;20030;-47
2021/04/27 03:35:43;;;;;;;3.47;1.40;;;;;;;4.67;40.92;97564.03;4860720;29;20032;-48
2021/04/27 03:38:10;;;;;;;3.88;1.20;;;;;;;4.58;41.33;97557.63;4869061;29;20486;-48
2021/04/27 03:40:35;;;;;;;6.47;1.52;;;;;;;4.63;41.54;97557.34;4878948;29;20037;-47
2021/04/27 03:43:00;;;;;;;5.45;1.70;;;;;;;4.52;41.14;97545.78;4879188;29;20069;-47
2021/04/27 03:45:35;;;;;;;4.45;1.50;;;;;;;4.57;41.33;97555.09;4879198;29;20036;-46
2021/04/27 03:48:08;;;;;;;4.15;1.40;;;;;;;4.56;41.19;97551.66;4878755;29;20029;-46
2021/04/27 03:50:36;;;;;;;4.95;1.55;;;;;;;4.46;41.57;97551.31;4878563;29;20024;-46
2021/04/27 03:53:02;;;;;;;3.72;1.48;;;;;;;4.45;41.33;97548.81;4862084;29;20033;-46
2021/04/27 03:55:27;;;;;;;4.38;1.52;;;;;;;4.51;41.79;97549.31;4860204;29;20029;-49
2021/04/27 03:57:52;;;;;;;3.92;1.48;;;;;;;4.56;41.45;97550.81;4859978;29;20505;-46
2021/04/27 04:00:18;;;;;;;3.03;1.50;;;;;;;4.53;41.39;97551.81;4859734;29;20041;-52
2021/04/27 04:02:44;;;;;;;4.28;1.50;;;;;;;4.35;41.74;97553.66;4859965;29;20037;-49
2021/04/27 04:05:10;;;;;;;5.47;1.60;;;;;;;4.27;42.60;97550.63;4868943;29;20036;-54
2021/04/27 04:07:35;;;;;;;5.03;1.70;;;;;;;4.32;42.18;97551.22;4878609;29;20175;-47
2021/04/27 04:10:01;;;;;;;4.82;1.40;;;;;;;4.37;42.22;97551.81;4878087;29;20474;-53
2021/04/27 04:12:26;;;;;;;6.75;1.98;;;;;;;4.55;41.87;97552.59;4878518;29;20040;-50
2021/04/27 04:14:53;;;;;;;3.55;1.33;;;;;;;4.50;41.83;97552.81;4878315;29;20025;-49
2021/04/27 04:17:18;;;;;;;3.58;1.48;;;;;;;4.60;41.69;97552.31;4878620;29;20049;-47
2021/04/27 04:19:44;;;;;;;5.50;1.50;;;;;;;4.53;42.22;97546.63;4876753;29;20123;-48
2021/04/27 04:22:09;;;;;;;3.28;1.45;;;;;;;4.51;41.98;97551.06;4878023;29;20073;-48
2021/04/27 04:24:35;;;;;;;4.55;1.80;;;;;;;4.60;42.33;97553.16;4882607;29;20481;-48
2021/04/27 04:27:00;;;;;;;6.38;2.10;;;;;;;4.48;42.39;97554.66;4884361;29;20401;-48
2021/04/27 04:29:26;;;;;;;4.65;1.90;;;;;;;4.50;42.98;97545.03;4884204;29;20145;-47
2021/04/27 04:31:52;;;;;;;5.80;1.90;;;;;;;4.62;42.04;97551.31;4884158;29;20035;-47
2021/04/27 04:34:18;;;;;;;4.78;1.90;;;;;;;4.60;42.25;97541.94;4877465;29;20030;-47
2021/04/27 04:36:43;;;;;;;5.72;2.22;;;;;;;4.66;41.96;97550.22;4865765;29;20068;-48
2021/04/27 04:39:08;;;;;;;3.92;1.73;;;;;;;4.81;41.56;97540.72;4864477;29;20402;-49
2021/04/27 04:41:34;;;;;;;3.20;1.52;;;;;;;4.82;41.86;97547.63;4865392;29;20059;-50
2021/04/27 04:43:59;;;;;;;4.13;1.85;;;;;;;4.75;42.03;97551.50;4865601;29;20546;-47
2021/04/27 04:46:25;;;;;;;4.63;1.88;;;;;;;4.90;41.52;97542.00;4865683;29;20458;-47
2021/04/27 04:48:50;;;;;;;4.50;1.60;;;;;;;5.06;41.22;97539.34;4881742;29;20442;-48
2021/04/27 04:51:15;;;;;;;4.20;1.88;;;;;;;4.95;41.89;97545.16;4883978;29;20059;-48
2021/04/27 04:53:41;;;;;;;4.28;1.70;;;;;;;5.04;40.97;97544.66;4884197;29;20036;-47
2021/04/27 04:56:06;;;;;;;4.40;1.80;;;;;;;5.14;40.58;97544.97;4884120;29;20033;-50
2021/04/27 04:58:32;;;;;;;5.32;1.98;;;;;;;5.10;40.52;97535.66;4884019;29;20033;-48
2021/04/27 05:00:57;;;;;;;5.60;1.80;;;;;;;5.09;40.64;97537.41;4883788;29;20409;-51
2021/04/27 05:03:24;;;;;;;4.30;1.85;;;;;;;5.23;40.35;97541.84;4869011;29;20041;-50
2021/04/27 05:05:50;;;;;;;6.25;1.90;;;;;;;5.13;40.82;97530.31;4865648;29;20184;-51
2021/04/27 05:08:24;;;;;;;3.70;1.65;;;;;;;5.30;40.81;97548.38;4865467;29;20037;-49
2021/04/27 05:10:49;;;;;;;5.57;1.90;;;;;;;5.42;40.96;97541.59;4865329;29;20052;-47
2021/04/27 05:13:15;;;;;;;5.80;1.85;;;;;;;5.48;40.67;97536.06;4865298;29;20517;-47
2021/04/27 05:15:40;;;;;;;4.70;1.85;;;;;;;5.40;40.51;97539.13;4865438;29;20040;-48
2021/04/27 05:18:06;;;;;;;5.32;2.03;;;;;;;5.48;40.54;97539.50;4869215;29;20040;-47
2021/04/27 05:20:32;;;;;;;5.30;1.90;;;;;;;5.60;40.42;97535.31;4865087;29;20474;-48
2021/04/27 05:22:57;;;;;;;4.60;1.63;;;;;;;5.51;40.30;97535.88;4870023;29;20090;-47
2021/04/27 05:25:22;;;;;;;5.18;1.42;;;;;;;5.51;40.15;97535.03;4882874;29;20024;-47
2021/04/27 05:27:48;;;;;;;5.07;1.80;;;;;;;5.64;39.84;97541.16;4883627;29;20028;-47
2021/04/27 05:30:14;;;;;;;8.27;1.70;;;;;;;5.50;40.77;97528.16;4881436;29;20394;-49
2021/04/27 05:32:39;;;;;;;6.22;1.70;;;;;;;5.48;40.70;97531.69;4874907;29;20067;-48
2021/04/27 05:35:05;;;;;;;3.72;1.70;;;;;;;5.69;40.24;97539.16;4881456;29;20061;-48
2021/04/27 05:37:31;;;;;;;4.30;1.52;;;;;;;5.58;40.15;97536.34;4880884;29;20029;-47
2021/04/27 05:39:56;;;;;;;3.63;1.48;;;;;;;5.68;39.62;97540.09;4879163;29;20068;-50
2021/04/27 05:42:22;;;;;;;6.55;2.38;;;;;;;5.79;39.84;97532.47;4880762;29;20036;-48
2021/04/27 05:44:47;;;;;;;5.50;2.10;;;;;;;5.81;40.02;97529.75;4880889;29;20028;-56
2021/04/27 05:47:13;;;;;;;5.18;2.45;;;;;;;5.91;40.14;97533.50;4863914;29;20100;-47
2021/04/27 05:49:38;;;;;;;6.32;2.00;;;;;;;6.09;39.90;97527.22;4874177;29;20032;-48
2021/04/27 05:52:04;;;;;;;5.97;2.00;;;;;;;6.19;38.98;97530.06;4845818;29;20266;-44
2021/04/27 05:54:29;;;;;;;5.25;1.90;;;;;;;6.33;39.29;97524.88;4877569;29;20557;-48
2021/04/27 05:56:54;;;;;;;5.60;2.00;;;;;;;6.45;39.16;97530.22;4869675;29;20062;-47
2021/04/27 05:59:20;;;;;;;6.72;2.28;;;;;;;6.62;39.70;97530.00;4861350;29;20032;-45
2021/04/27 06:01:45;;;;;;;6.60;2.00;;;;;;;6.66;38.24;97526.28;4860730;29;20034;-49
2021/04/27 06:04:11;;;;;;;4.75;1.95;;;;;;;6.37;38.85;97525.50;4861960;29;20036;-47
2021/04/27 06:06:37;;;;;;;7.35;2.38;;;;;;;6.48;38.90;97527.44;4879699;29;20029;-48
2021/04/27 06:09:04;;;;;;;4.80;1.95;;;;;;;6.40;39.59;97533.97;4879513;29;20501;-49
2021/04/27 06:11:29;;;;;;;4.93;2.10;;;;;;;6.28;39.09;97524.31;4879955;29;20033;-48
2021/04/27 06:13:55;;;;;;;6.40;2.33;;;;;;;6.52;38.64;97531.53;4880150;29;20025;-47
2021/04/27 06:16:20;;;;;;;7.57;2.25;;;;;;;6.55;38.56;97524.34;4880094;29;20025;-45
2021/04/27 06:18:45;;;;;;;6.00;2.22;;;;;;;6.60;38.17;97526.66;4879678;29;20390;-45
2021/04/27 06:21:12;;;;;;;5.22;2.10;;;;;;;6.80;38.68;97522.78;4879358;29;20433;-48
2021/04/27 06:23:38;;;;;;;5.75;2.40;;;;;;;7.04;37.88;97520.38;4862963;29;20032;-47
2021/04/27 06:26:03;;;;;;;6.93;2.10;;;;;;;7.07;37.41;97521.00;4879729;29;20025;-49
2021/04/27 06:28:28;;;;;;;6.70;2.25;;;;;;;6.98;37.11;97520.75;4879476;29;20409;-47
2021/04/27 06:30:54;;;;;;;6.07;2.58;;;;;;;7.04;36.91;97517.75;4879278;29;20029;-49
2021/04/27 06:33:19;;;;;;;4.40;2.13;;;;;;;7.14;37.23;97521.44;4879364;29;20037;-49
2021/04/27 06:35:45;;;;;;;6.47;2.20;;;;;;;7.28;37.28;97518.75;4879642;29;20052;-48
2021/04/27 06:38:16;;;;;;;6.35;2.13;;;;;;;7.33;36.96;97516.69;4879589;29;20028;-45
2021/04/27 06:40:41;;;;;;;7.22;2.35;;;;;;;7.46;36.69;97505.41;4879047;29;20370;-49
2021/04/27 06:43:07;;;;;;;6.05;2.33;;;;;;;7.38;36.72;97504.16;4879156;29;20054;-50
2021/04/27 06:45:32;;;;;;;6.65;2.40;;;;;;;7.56;36.85;97501.25;4878811;29;20037;-50
2021/04/27 06:47:58;;;;;;;6.40;2.20;;;;;;;7.84;36.36;97503.69;4879780;29;20036;-49
2021/04/27 06:50:23;;;;;;;5.35;2.30;;;;;;;7.84;36.65;97501.06;4879670;29;20032;-48
2021/04/27 06:52:48;;;;;;;6.35;2.33;;;;;;;7.93;36.80;97496.97;4879469;29;20403;-49
2021/04/27 06:55:14;;;;;;;5.13;2.30;;;;;;;8.02;36.23;97492.91;4868374;29;20053;-46
2021/04/27 06:57:40;;;;;;;4.60;2.17;;;;;;;8.00;35.86;97494.78;4877279;29;20036;-49
2021/04/27 07:00:06;;;;;;;5.65;2.08;;;;;;;8.05;36.77;97492.66;4877990;29;20130;-50
2021/04/27 07:02:32;;;;;;;5.28;2.33;;;;;;;8.29;35.55;97490.97;4880302;29;20098;-52
2021/04/27 07:04:57;;;;;;;5.63;2.58;;;;;;;8.43;35.82;97494.41;4880409;29;20033;-52
2021/04/27 07:07:24;;;;;;;6.60;2.50;;;;;;;8.26;34.77;97480.72;4879849;29;20382;-52
2021/04/27 07:09:49;;;;;;;5.85;2.42;;;;;;;8.54;34.71;97494.47;4879921;29;20035;-53
2021/04/27 07:12:14;;;;;;;5.53;2.47;;;;;;;8.60;34.18;97496.63;4880519;29;20025;-50
2021/04/27 07:14:40;;;;;;;5.28;2.30;;;;;;;8.70;34.56;97489.81;4880269;29;20080;-54
2021/04/27 07:17:05;;;;;;;5.60;2.30;;;;;;;8.67;35.26;97487.44;4880593;29;20033;-50
2021/04/27 07:19:31;;;;;;;4.95;2.35;;;;;;;8.64;34.00;97486.81;4880585;29;20040;-51
2021/04/27 07:21:56;;;;;;;7.03;2.63;;;;;;;8.80;34.25;97484.75;4880127;29;20429;-50
2021/04/27 07:24:22;;;;;;;9.20;2.70;;;;;;;8.81;34.67;97489.06;4879658;29;20039;-51
2021/04/27 07:26:49;;;;;;;5.45;2.67;;;;;;;9.02;34.16;97484.84;4879323;29;20035;-50
2021/04/27 07:29:15;;;;;;;8.38;3.03;;;;;;;8.80;34.12;97479.50;4878821;29;20025;-46
2021/04/27 07:31:40;;;;;;;6.32;2.65;;;;;;;8.98;34.45;97477.31;4878736;29;20032;-47
2021/04/27 07:34:06;;;;;;;6.25;2.67;;;;;;;9.04;34.29;97476.88;4878438;29;20430;-45
2021/04/27 07:36:31;;;;;;;7.13;2.92;;;;;;;9.12;34.26;97479.78;4878441;29;20115;-50
2021/04/27 07:38:57;;;;;;;6.82;2.50;;;;;;;9.49;34.48;97471.78;4878517;29;20037;-45
2021/04/27 07:41:22;;;;;;;6.43;2.55;;;;;;;9.75;34.11;97468.00;4878263;29;20029;-47
2021/04/27 07:43:48;;;;;;;5.78;2.38;;;;;;;9.70;32.97;97471.91;4878987;29;20029;-49
2021/04/27 07:46:13;;;;;;;5.25;2.65;;;;;;;9.95;32.88;97481.38;4879440;29;20386;-49
2021/04/27 07:48:38;;;;;;;6.22;2.75;;;;;;;9.98;33.49;97479.34;4879279;29;20068;-46
2021/04/27 07:51:04;;;;;;;7.22;2.63;;;;;;;10.12;32.81;97475.63;4878558;29;20025;-48
2021/04/27 07:53:29;;;;;;;6.15;3.22;;;;;;;10.15;33.06;97475.41;4878304;29;20033;-47
2021/04/27 07:55:55;;;;;;;6.40;3.00;;;;;;;10.36;32.62;97472.91;4877949;29;20474;-48
2021/04/27 07:58:20;;;;;;;8.13;2.88;;;;;;;10.74;32.04;97470.81;4868159;29;20112;-48
2021/04/27 08:00:46;;;;;;;5.47;2.50;;;;;;;10.56;32.00;97463.44;4859408;29;20033;-48
2021/04/27 08:03:11;;;;;;;7.82;3.00;;;;;;;10.79;31.75;97468.63;4859904;29;20025;-49
2021/04/27 08:05:37;;;;;;;7.35;2.80;;;;;;;10.64;31.43;97468.09;4859773;29;20371;-50
2021/04/27 08:08:02;;;;;;;6.32;2.83;;;;;;;10.61;32.05;97474.41;4859760;29;20043;-49
2021/04/27 08:10:28;;;;;;;6.93;2.90;;;;;;;10.71;32.22;97473.66;4859259;29;20032;-48
2021/04/27 08:12:53;;;;;;;5.80;2.90;;;;;;;10.93;32.06;97477.03;4859741;29;20465;-48
2021/04/27 08:15:21;;;;;;;7.57;3.40;;;;;;;11.04;31.23;97467.44;4859926;29;20112;-55
2021/04/27 08:17:46;;;;;;;8.07;2.88;;;;;;;11.06;31.73;97476.88;4859585;29;20036;-49
2021/04/27 08:20:14;;;;;;;7.63;3.15;;;;;;;11.25;31.99;97464.84;4859343;29;20029;-50
2021/04/27 08:22:40;;;;;;;7.43;3.10;;;;;;;11.23;31.35;97478.09;4859734;29;20041;-49
2021/04/27 08:25:06;;;;;;;8.35;3.05;;;;;;;11.23;31.18;97462.34;4859670;29;20029;-48
2021/04/27 08:27:32;;;;;;;7.40;3.00;;;;;;;11.30;31.30;97455.63;4859758;29;20033;-49
2021/04/27 08:29:58;;;;;;;7.20;3.13;;;;;;;11.30;31.42;97465.31;4859360;29;20029;-49
2021/04/27 08:32:23;;;;;;;7.00;3.35;;;;;;;11.60;30.70;97467.16;4859504;29;20077;-48
2021/04/27 08:34:48;;;;;;;7.15;2.72;;;;;;;11.63;31.38;97459.88;4859606;29;20048;-53
2021/04/27 08:37:14;;;;;;;6.82;3.10;;;;;;;11.85;29.93;97458.06;4858973;29;20030;-50
2021/04/27 08:39:39;;;;;;;6.97;3.22;;;;;;;11.94;31.18;97459.06;4866093;29;20025;-49
2021/04/27 08:42:05;;;;;;;7.07;3.35;;;;;;;12.14;30.81;97462.59;4876798;29;20421;-50
2021/04/27 08:44:30;;;;;;;7.85;3.53;;;;;;;11.96;30.08;97459.75;4860936;29;20045;-49
2021/04/27 08:46:55;;;;;;;6.80;3.13;;;;;;;11.82;30.62;97453.03;4878734;29;20029;-53
2021/04/27 08:49:21;;;;;;;7.65;3.45;;;;;;;12.14;30.40;97452.91;4877573;29;20386;-48
2021/04/27 08:51:46;;;;;;;6.32;3.28;;;;;;;12.25;30.46;97459.84;4876832;29;20033;-49
2021/04/27 08:54:12;;;;;;;7.13;3.20;;;;;;;12.34;30.25;97456.44;4877575;29;20025;-51
2021/04/27 08:56:37;;;;;;;6.18;3.00;;;;;;;12.62;31.01;97459.25;4877599;29;20021;-48
2021/04/27 08:59:03;;;;;;;6.78;3.10;;;;;;;12.68;30.75;97451.66;4877539;29;20481;-47
2021/04/27 09:01:28;;;;;;;6.57;3.25;;;;;;;12.55;30.35;97451.09;4877035;29;20060;-51
2021/04/27 09:03:54;;;;;;;8.23;3.20;;;;;;;12.49;29.44;97447.22;4877654;29;20025;-45
2021/04/27 09:06:21;;;;;;;6.05;3.20;;;;;;;12.78;29.00;97446.41;4877937;29;20543;-46
2021/04/27 09:08:47;;;;;;;7.95;3.60;;;;;;;13.01;29.47;97447.81;4877329;29;20108;-46
2021/04/27 09:11:31;;;;;;;7.38;3.25;;;;;;;13.04;28.61;97442.28;4879230;29;20031;-47
2021/04/27 09:14:19;;;;;;;7.05;3.28;;;;;;;13.20;28.73;97435.59;4881087;29;20036;-47
2021/04/27 09:16:55;;;;;;;5.82;3.03;;;;;;;13.52;28.44;97424.75;4880519;29;20067;-50
2021/04/27 09:19:34;;;;;;;6.75;3.42;;;;;;;13.51;29.00;97413.38;4880558;29;20120;-51
2021/04/27 09:22:07;;;;;;;7.05;3.25;;;;;;;13.90;28.21;97423.81;4880117;29;20509;-45
2021/04/27 09:24:35;;;;;;;6.68;2.97;;;;;;;14.20;28.24;97413.94;4880785;29;20037;-49
2021/04/27 09:27:00;;;;;;;6.07;3.13;;;;;;;14.20;28.24;97411.31;4880530;29;20108;-47
2021/04/27 09:29:41;;;;;;;7.05;3.47;;;;;;;14.61;27.24;97412.63;4880646;29;20103;-44
2021/04/27 09:32:07;;;;;;;8.63;3.38;;;;;;;14.72;27.60;97409.75;4880186;29;20025;-46
2021/04/27 09:34:34;;;;;;;6.43;3.00;;;;;;;15.07;27.05;97408.09;4880512;29;20036;-44
2021/04/27 09:37:08;;;;;;;6.57;3.25;;;;;;;15.30;26.41;97412.88;4880557;29;20049;-45
2021/04/27 09:39:42;;;;;;;6.70;3.60;;;;;;;15.09;26.21;97405.28;4880451;29;20033;-45
2021/04/27 09:42:21;;;;;;;6.95;3.38;;;;;;;15.31;25.42;97399.53;4880471;29;20022;-47
2021/04/27 09:44:49;;;;;;;5.63;2.80;;;;;;;15.85;25.41;97402.03;4880495;29;20032;-48
2021/04/27 09:47:19;;;;;;;7.53;3.60;;;;;;;16.01;25.42;97396.81;4880726;29;20099;-49
2021/04/27 09:50:07;;;;;;;7.05;3.47;;;;;;;16.29;25.03;97400.06;4880531;29;20032;-45
2021/04/27 09:52:41;;;;;;;6.05;3.08;;;;;;;16.71;24.92;97393.03;4865850;29;20032;-47
2021/04/27 09:55:10;;;;;;;7.55;3.33;;;;;;;16.87;23.66;97392.28;4880616;29;20505;-47
2021/04/27 09:57:39;;;;;;;7.00;3.70;;;;;;;17.14;23.48;97391.13;4880707;29;20029;-48
2021/04/27 10:00:32;;;;;;;8.07;3.55;;;;;;;18.13;21.88;97388.06;4880176;29;20025;-49
2021/04/27 10:03:04;;;;;;;8.13;4.15;;;;;;;20.12;19.37;97388.81;4880528;29;20060;-45
2021/04/27 10:05:30;;;;;;;7.03;3.42;;;;;;;21.30;18.41;97382.31;4880433;29;20025;-48
2021/04/27 10:07:58;;;;;;;7.88;3.65;;;;;;;21.92;18.00;97380.69;4880257;29;20400;-47
2021/04/27 10:10:24;;;;;;;6.43;3.28;;;;;;;22.63;17.92;97384.91;4880186;29;20029;-46
2021/04/27 10:12:50;;;;;;;6.60;3.15;;;;;;;23.15;16.22;97381.53;4880540;29;20032;-47
2021/04/27 10:15:15;;;;;;;8.63;3.90;;;;;;;22.54;16.80;97373.59;4880218;29;20033;-47
2021/04/27 10:17:41;;;;;;;7.82;3.78;;;;;;;21.79;17.41;97370.75;4880372;29;20040;-45
2021/04/27 10:20:11;;;;;;;6.28;3.95;;;;;;;22.32;17.14;97372.88;4880257;29;20477;-45
2021/04/27 10:22:36;;;;;;;6.43;3.65;;;;;;;22.39;16.82;97363.03;4879413;29;20047;-44
2021/04/27 10:25:02;;;;;;;6.72;3.55;;;;;;;22.94;16.76;97363.81;4879217;29;20426;-45
2021/04/27 10:27:28;;;;;;;6.88;3.60;;;;;;;22.71;17.24;97363.34;4863680;29;20025;-52
2021/04/27 10:30:16;;;;;;;5.95;3.58;;;;;;;22.28;17.69;97355.63;4881307;29;20063;-47
2021/04/27 10:32:41;;;;;;;6.85;3.75;;;;;;;21.89;17.39;97354.41;4867432;29;20037;-47
2021/04/27 10:35:09;;;;;;;6.97;3.72;;;;;;;22.34;17.09;97351.34;4879851;29;20412;-48
2021/04/27 10:38:00;;;;;;;7.80;3.58;;;;;;;22.38;17.48;97350.72;4850012;29;20528;-48
2021/04/27 10:40:47;;;;;;;6.38;3.60;;;;;;;22.08;17.05;97352.00;4843931;29;20393;-50
2021/04/27 10:43:25;;;;;;;7.63;3.50;;;;;;;22.26;17.80;97344.31;4860888;29;20033;-49
2021/04/27 10:46:01;;;;;;;6.50;3.25;;;;;;;22.96;17.32;97340.38;4860221;29;20040;-49
2021/04/27 10:48:45;;;;;;;6.65;3.33;;;;;;;22.67;16.98;97340.72;4860115;29;20032;-49
2021/04/27 10:51:23;;;;;;;6.97;3.67;;;;;;;22.98;16.58;97338.31;4844862;29;20435;-51
2021/04/27 10:54:17;;;;;;;8.82;3.40;;;;;;;22.62;16.99;97332.50;4864008;29;20475;-51
2021/04/27 10:57:00;;;;;;;6.32;3.65;;;;;;;23.03;16.45;97334.22;4865360;29;20100;-52
2021/04/27 10:59:31;;;;;;;7.40;3.80;;;;;;;22.89;16.63;97323.50;4864726;29;20108;-51
2021/04/27 11:02:17;;;;;;;6.93;3.65;;;;;;;23.14;16.04;97326.41;4848337;29;20061;-50
2021/04/27 11:04:44;;;;;;;6.22;3.40;;;;;;;23.45;15.86;97323.06;4860421;29;20041;-48
2021/04/27 11:07:15;;;;;;;6.72;3.45;;;;;;;23.21;15.92;97313.84;4861109;29;20089;-51
2021/04/27 11:09:57;;;;;;;6.43;3.53;;;;;;;22.75;16.56;97319.16;4870250;29;20044;-49
2021/04/27 11:12:28;;;;;;;5.25;2.90;;;;;;;23.55;15.67;97316.47;4831340;29;20117;-48
2021/04/27 11:15:15;;;;;;;5.97;3.03;;;;;;;23.97;15.49;97315.13;4859877;29;20041;-49
2021/04/27 11:17:41;;;;;;;7.10;3.50;;;;;;;24.56;14.83;97307.88;4843839;29;20081;-52
2021/04/27 11:20:08;;;;;;;6.32;3.30;;;;;;;24.26;15.08;97311.13;4860328;29;20036;-51
2021/04/27 11:22:35;;;;;;;5.25;3.08;;;;;;;24.12;15.00;97312.19;4861008;29;20025;-46
2021/04/27 11:25:02;;;;;;;6.28;3.22;;;;;;;24.00;15.57;97303.19;4860079;29;20029;-45
2021/04/27 11:27:29;;;;;;;5.93;3.40;;;;;;;23.86;15.83;97311.28;4859649;29;20372;-48
2021/04/27 11:30:14;;;;;;;5.85;3.70;;;;;;;24.03;14.72;97300.09;4862976;29;20116;-50
2021/04/27 11:32:44;;;;;;;6.78;3.90;;;;;;;23.77;14.79;97299.13;4878232;29;20025;-47
2021/04/27 11:35:20;;;;;;;5.65;3.40;;;;;;;24.38;15.00;97298.66;4878588;29;20092;-48
2021/04/27 11:37:47;;;;;;;5.82;3.17;;;;;;;24.77;14.14;97286.06;4878420;29;20021;-54
2021/04/27 11:40:24;;;;;;;5.88;3.40;;;;;;;25.05;14.51;97284.81;4878653;29;20036;-52